Time;durP1;ratioP1;P1;durP2;ratioP2;P2;SDS_P1;SDS_P2;PMS_P1;PMS_P2;Temp;Humidity;BMP_temperature;BMP_pressure;BME280_temperature;BME280_humidity;BME280_pressure;Samples;Min_cycle;Max_cycle;Signal;HPM_P1;HPM_P2
2022/06/11 00:01:30;;;;;;;4.72;1.50;;;16.00;57.60;;;;;;5050464;28;20087;-62
2022/06/11 00:03:59;;;;;;;3.97;1.27;;;16.00;57.10;;;;;;5059856;28;20033;-62
2022/06/11 00:06:27;;;;;;;4.72;1.50;;;15.90;57.10;;;;;;5054138;28;20040;-61
2022/06/11 00:08:53;;;;;;;2.83;1.25;;;15.90;57.30;;;;;;5054019;28;20383;-63
2022/06/11 00:11:20;;;;;;;1.63;1.30;;;15.80;57.20;;;;;;5051475;28;20036;-62
2022/06/11 00:13:46;;;;;;;3.33;1.23;;;15.80;57.30;;;;;;5058154;28;20035;-63
2022/06/11 00:16:12;;;;;;;3.75;1.50;;;15.70;57.30;;;;;;5051435;28;20029;-62
2022/06/11 00:18:42;;;;;;;3.42;1.40;;;15.70;57.50;;;;;;5059051;28;20020;-61
2022/06/11 00:21:09;;;;;;;21.33;1.83;;;15.70;57.60;;;;;;5044954;28;20025;-61
2022/06/11 00:23:35;;;;;;;2.63;1.33;;;15.60;57.50;;;;;;5059692;28;20036;-61
2022/06/11 00:26:02;;;;;;;4.10;1.35;;;15.60;57.70;;;;;;5061812;28;20032;-61
2022/06/11 00:28:28;;;;;;;2.67;1.08;;;15.60;57.80;;;;;;5064973;28;20029;-61
2022/06/11 00:30:54;;;;;;;2.25;1.33;;;15.60;58.00;;;;;;5058069;28;20029;-61
2022/06/11 00:33:20;;;;;;;5.00;1.23;;;15.50;57.90;;;;;;5052918;28;20026;-61
2022/06/11 00:35:46;;;;;;;1.67;1.10;;;15.50;58.10;;;;;;5050994;28;20056;-61
2022/06/11 00:38:13;;;;;;;4.45;1.48;;;15.50;58.10;;;;;;5043559;28;20032;-61
2022/06/11 00:40:43;;;;;;;4.20;1.25;;;15.50;58.10;;;;;;5055209;28;20096;-61
2022/06/11 00:43:12;;;;;;;2.92;1.20;;;15.40;58.50;;;;;;5051064;28;20025;-61
2022/06/11 00:45:43;;;;;;;2.92;1.20;;;15.40;58.40;;;;;;5053142;28;20036;-61
2022/06/11 00:48:29;;;;;;;3.42;1.42;;;15.40;58.30;;;;;;5056869;28;20080;-62
2022/06/11 00:50:59;;;;;;;3.15;1.35;;;15.30;59.30;;;;;;5054306;28;20060;-61
2022/06/11 00:53:40;;;;;;;4.63;1.20;;;15.30;58.60;;;;;;5051318;28;20028;-61
2022/06/11 00:56:11;;;;;;;3.30;1.20;;;15.30;59.00;;;;;;5050261;28;20367;-61
2022/06/11 00:58:40;;;;;;;1.15;1.05;;;15.20;58.80;;;;;;5050740;28;20032;-63
2022/06/11 01:01:07;;;;;;;2.65;1.20;;;15.20;58.70;;;;;;5054147;28;20044;-61
2022/06/11 01:03:41;;;;;;;3.78;1.25;;;15.20;58.70;;;;;;5055844;28;20661;-61
2022/06/11 01:06:10;;;;;;;3.38;1.17;;;15.10;59.20;;;;;;5052312;28;20029;-62
2022/06/11 01:08:47;;;;;;;2.17;1.30;;;15.10;58.70;;;;;;5052398;28;20021;-61
2022/06/11 01:11:31;;;;;;;4.00;1.50;;;15.10;58.80;;;;;;5053191;28;20021;-61
2022/06/11 01:14:06;;;;;;;2.45;1.15;;;15.10;59.90;;;;;;5053393;28;20018;-62
2022/06/11 01:16:37;;;;;;;;;;;15.00;58.80;;;;;;5053465;28;20511;-61
2022/06/11 01:19:22;;;;;;;1.80;1.08;;;15.10;58.90;;;;;;5056803;28;20329;-61
2022/06/11 01:22:12;;;;;;;1.67;1.23;;;15.00;59.20;;;;;;5055118;28;20108;-62
2022/06/11 01:24:43;;;;;;;1.10;1.00;;;15.00;58.60;;;;;;5052469;28;20047;-61
2022/06/11 01:27:31;;;;;;;3.40;1.30;;;14.90;58.90;;;;;;5053961;28;20032;-61
2022/06/11 01:29:57;;;;;;;1.77;1.08;;;14.90;59.10;;;;;;5057375;28;20021;-60
2022/06/11 01:32:49;;;;;;;2.63;1.55;;;14.90;58.90;;;;;;5053138;28;20040;-61
2022/06/11 01:35:52;;;;;;;4.40;1.27;;;14.80;59.00;;;;;;5050350;28;20075;-62
2022/06/11 01:38:23;;;;;;;1.65;1.10;;;14.80;60.00;;;;;;5048085;28;20053;-61
2022/06/11 01:41:20;;;;;;;7.30;1.60;;;14.80;59.50;;;;;;5053713;28;20032;-60
2022/06/11 01:43:48;;;;;;;3.25;1.13;;;14.80;60.50;;;;;;5052176;28;20511;-61
2022/06/11 01:46:23;;;;;;;3.03;1.38;;;14.70;59.30;;;;;;5054753;28;20041;-61
2022/06/11 01:49:19;;;;;;;2.13;1.30;;;14.70;59.90;;;;;;5052711;28;20078;-61
2022/06/11 01:51:58;;;;;;;2.40;1.33;;;14.70;60.60;;;;;;5051669;28;20045;-62
2022/06/11 01:54:55;;;;;;;2.40;1.33;;;14.70;59.70;;;;;;5053149;28;20028;-60
2022/06/11 01:57:36;;;;;;;2.53;1.40;;;14.70;60.60;;;;;;5050050;28;20044;-61
2022/06/11 02:00:17;;;;;;;2.15;1.35;;;14.60;59.70;;;;;;5056009;28;20084;-61
2022/06/11 02:03:17;;;;;;;1.67;1.10;;;14.60;59.70;;;;;;5050832;28;20029;-62
2022/06/11 02:05:56;;;;;;;2.42;1.25;;;14.60;59.90;;;;;;5027084;28;20052;-61
2022/06/11 02:08:31;;;;;;;4.78;1.48;;;14.50;59.80;;;;;;5055988;28;20033;-61
2022/06/11 02:11:12;;;;;;;4.40;1.52;;;14.50;59.50;;;;;;5053625;28;20060;-61
2022/06/11 02:13:56;;;;;;;2.55;1.52;;;14.50;61.30;;;;;;5053156;28;20039;-62
2022/06/11 02:16:33;;;;;;;2.10;1.35;;;14.50;61.00;;;;;;5048822;28;20064;-61
2022/06/11 02:19:04;;;;;;;3.50;1.52;;;14.40;60.20;;;;;;5051813;28;20033;-61
2022/06/11 02:21:40;;;;;;;2.95;1.40;;;14.40;60.00;;;;;;5051957;28;20017;-61
2022/06/11 02:24:17;;;;;;;2.42;1.30;;;14.40;60.10;;;;;;5048777;28;20040;-61
2022/06/11 02:26:49;;;;;;;4.45;1.70;;;14.40;60.80;;;;;;4949727;28;20739;-61
2022/06/11 02:29:17;;;;;;;1.80;1.15;;;14.40;60.40;;;;;;5053269;28;20020;-61
2022/06/11 02:31:53;;;;;;;2.30;1.25;;;14.30;60.30;;;;;;5047385;28;20028;-62
2022/06/11 02:34:21;;;;;;;1.42;1.20;;;14.30;60.60;;;;;;5051467;28;20064;-62
2022/06/11 02:37:26;;;;;;;3.10;1.42;;;14.30;60.50;;;;;;5055896;28;20037;-62
2022/06/11 02:39:54;;;;;;;2.10;1.33;;;14.30;61.70;;;;;;5019520;28;20037;-61
2022/06/11 02:42:22;;;;;;;2.78;1.40;;;14.30;60.50;;;;;;5057495;28;20029;-61
2022/06/11 02:44:48;;;;;;;3.05;1.20;;;14.20;60.70;;;;;;5048933;28;20473;-61
2022/06/11 02:47:15;;;;;;;5.18;1.42;;;14.20;60.70;;;;;;5054832;28;20116;-61
2022/06/11 02:49:41;;;;;;;1.90;1.30;;;14.20;60.90;;;;;;5049002;28;20025;-61
2022/06/11 02:52:13;;;;;;;3.58;1.50;;;14.20;61.00;;;;;;5041935;28;20021;-61
2022/06/11 02:54:40;;;;;;;4.13;1.48;;;14.20;61.30;;;;;;5048888;28;20219;-61
2022/06/11 02:57:11;;;;;;;3.03;1.52;;;14.20;61.10;;;;;;5044978;28;20025;-61
2022/06/11 02:59:37;;;;;;;1.55;1.30;;;14.20;61.20;;;;;;5053105;28;20025;-62
2022/06/11 03:02:03;;;;;;;2.38;1.40;;;14.10;61.10;;;;;;5052513;28;20474;-62
2022/06/11 03:04:30;;;;;;;2.50;1.48;;;14.10;61.20;;;;;;5048407;28;20025;-61
2022/06/11 03:06:55;;;;;;;2.45;1.27;;;14.10;61.30;;;;;;5055072;28;20130;-62
2022/06/11 03:09:24;;;;;;;2.05;1.23;;;14.10;61.40;;;;;;5051346;28;20022;-61
2022/06/11 03:11:50;;;;;;;1.70;1.20;;;14.00;61.40;;;;;;5050074;28;20055;-61
2022/06/11 03:14:16;;;;;;;2.95;1.30;;;14.00;61.30;;;;;;5051226;28;20489;-62
2022/06/11 03:16:44;;;;;;;2.00;1.42;;;14.00;61.40;;;;;;5051267;28;20028;-62
2022/06/11 03:19:11;;;;;;;3.35;1.30;;;14.00;61.60;;;;;;5047040;28;20033;-61
2022/06/11 03:21:37;;;;;;;2.08;1.25;;;14.00;61.60;;;;;;5048369;28;20102;-61
2022/06/11 03:24:04;;;;;;;1.70;1.30;;;13.90;61.50;;;;;;5053681;28;20021;-61
2022/06/11 03:26:30;;;;;;;1.70;1.33;;;13.90;61.70;;;;;;5050843;28;20063;-61
2022/06/11 03:28:56;;;;;;;4.32;1.17;;;13.90;61.70;;;;;;5056219;28;20028;-61
2022/06/11 03:31:22;;;;;;;1.70;1.17;;;13.90;61.80;;;;;;5053163;28;20049;-62
2022/06/11 03:33:47;;;;;;;2.70;1.40;;;13.90;61.80;;;;;;5058519;28;20024;-62
2022/06/11 03:36:15;;;;;;;3.72;1.40;;;13.90;61.90;;;;;;5048067;28;20078;-61
2022/06/11 03:38:42;;;;;;;5.07;1.35;;;13.90;62.20;;;;;;5048518;28;20036;-62
2022/06/11 03:41:09;;;;;;;2.13;1.35;;;13.90;62.20;;;;;;5058568;28;20028;-61
2022/06/11 03:43:35;;;;;;;3.88;1.50;;;13.80;62.10;;;;;;5045491;28;20084;-61
2022/06/11 03:46:02;;;;;;;1.85;1.25;;;13.90;62.20;;;;;;5042376;28;20051;-61
2022/06/11 03:48:29;;;;;;;1.65;1.40;;;13.90;62.30;;;;;;5052107;28;20045;-62
2022/06/11 03:50:57;;;;;;;3.05;1.40;;;13.80;62.40;;;;;;5053192;28;20034;-62
2022/06/11 03:53:24;;;;;;;2.13;1.40;;;13.80;62.40;;;;;;5053699;28;20029;-61
2022/06/11 03:55:49;;;;;;;2.05;1.38;;;13.80;62.50;;;;;;5032656;28;20033;-60
2022/06/11 03:58:15;;;;;;;2.65;1.05;;;13.90;62.50;;;;;;5049122;28;20032;-61
2022/06/11 04:03:26;;;;;;;1.77;1.30;;;13.90;62.60;;;;;;5050442;28;20087;-62
2022/06/11 04:05:53;;;;;;;4.70;1.40;;;13.90;62.60;;;;;;5054450;28;20035;-61
2022/06/11 04:08:22;;;;;;;2.63;1.50;;;13.90;62.90;;;;;;5057895;28;20041;-61
2022/06/11 04:10:48;;;;;;;1.50;1.30;;;14.00;63.00;;;;;;5056191;28;20021;-63
2022/06/11 04:13:15;;;;;;;1.30;1.20;;;14.00;62.90;;;;;;5053641;28;20032;-61
2022/06/11 04:15:43;;;;;;;6.72;1.80;;;14.10;62.90;;;;;;5033742;28;20028;-62
2022/06/11 04:18:16;;;;;;;3.47;1.52;;;14.10;63.00;;;;;;5045992;28;20064;-62
2022/06/11 04:20:41;;;;;;;2.63;1.30;;;14.20;62.90;;;;;;5055861;28;20115;-61
2022/06/11 04:23:07;;;;;;;2.10;1.38;;;14.20;62.80;;;;;;5058368;28;20073;-61
2022/06/11 04:25:34;;;;;;;2.17;1.17;;;14.30;62.80;;;;;;5055716;28;20522;-63
2022/06/11 04:28:00;;;;;;;2.58;1.40;;;14.30;62.90;;;;;;5054406;28;20026;-61
2022/06/11 04:30:26;;;;;;;2.38;1.40;;;14.40;62.70;;;;;;5059602;28;20025;-61
2022/06/11 04:32:52;;;;;;;1.67;1.30;;;14.50;62.70;;;;;;5051838;28;20029;-61
2022/06/11 04:35:19;;;;;;;3.00;1.38;;;14.60;62.70;;;;;;5050758;28;20057;-61
2022/06/11 04:37:45;;;;;;;2.78;1.50;;;14.60;62.50;;;;;;5052040;28;20017;-62
2022/06/11 04:40:12;;;;;;;1.20;1.10;;;14.60;62.40;;;;;;5052986;28;20028;-62
2022/06/11 04:42:38;;;;;;;1.40;1.20;;;14.70;62.30;;;;;;5048591;28;20116;-61
2022/06/11 04:45:05;;;;;;;2.83;1.40;;;14.80;62.30;;;;;;5056728;28;20036;-63
2022/06/11 04:47:31;;;;;;;2.33;1.35;;;14.80;62.30;;;;;;5061366;28;20093;-62
2022/06/11 04:49:59;;;;;;;2.08;1.15;;;14.90;62.20;;;;;;5052398;28;20032;-61
2022/06/11 04:52:26;;;;;;;3.40;1.48;;;15.00;62.00;;;;;;5058465;28;20063;-62
2022/06/11 04:54:52;;;;;;;3.45;1.27;;;15.10;61.90;;;;;;5051632;28;20028;-62
2022/06/11 04:57:20;;;;;;;2.03;1.13;;;15.10;61.60;;;;;;5052364;28;20083;-62
2022/06/11 04:59:46;;;;;;;3.22;1.40;;;15.20;61.60;;;;;;5046948;28;20053;-63
2022/06/11 05:02:11;;;;;;;1.40;1.30;;;15.30;61.50;;;;;;5045786;28;20044;-62
2022/06/11 05:04:37;;;;;;;2.10;1.33;;;15.40;61.50;;;;;;5051226;28;20116;-62
2022/06/11 05:07:04;;;;;;;2.45;1.38;;;15.50;61.50;;;;;;5058673;28;20567;-62
2022/06/11 05:09:30;;;;;;;2.90;1.40;;;15.50;61.60;;;;;;5056635;28;20033;-61
2022/06/11 05:11:57;;;;;;;2.20;1.13;;;15.60;61.50;;;;;;5053657;28;20029;-63
2022/06/11 05:14:24;;;;;;;2.90;1.35;;;15.80;61.50;;;;;;5035700;28;20044;-62
2022/06/11 05:16:50;;;;;;;3.60;1.73;;;15.90;61.40;;;;;;5051080;28;20036;-62
2022/06/11 05:19:20;;;;;;;5.00;2.08;;;16.00;61.20;;;;;;5055222;28;20547;-62
2022/06/11 05:21:48;;;;;;;2.15;1.40;;;16.20;61.30;;;;;;5052251;28;20501;-62
2022/06/11 05:24:14;;;;;;;2.03;1.23;;;16.30;61.00;;;;;;5058007;28;20118;-62
2022/06/11 05:26:46;;;;;;;3.28;1.35;;;16.50;60.90;;;;;;4997217;28;20044;-63
2022/06/11 05:29:24;;;;;;;4.13;1.58;;;16.60;60.80;;;;;;5051484;28;20563;-62
2022/06/11 05:31:50;;;;;;;7.13;1.42;;;16.70;60.70;;;;;;5052012;28;20072;-62
2022/06/11 05:34:17;;;;;;;3.60;1.40;;;16.90;60.30;;;;;;5052898;28;20037;-61
2022/06/11 05:36:43;;;;;;;3.90;1.35;;;17.00;60.00;;;;;;5057652;28;20056;-61
2022/06/11 05:39:08;;;;;;;2.72;1.20;;;17.20;59.80;;;;;;5047800;28;20029;-61
2022/06/11 05:41:34;;;;;;;2.50;1.10;;;17.30;59.60;;;;;;5051331;28;20033;-62
2022/06/11 05:44:01;;;;;;;2.72;1.20;;;17.40;59.40;;;;;;5054001;28;20140;-61
2022/06/11 05:46:26;;;;;;;5.97;1.40;;;17.60;59.20;;;;;;5050409;28;20064;-62
2022/06/11 05:49:00;;;;;;;9.32;1.65;;;17.70;59.20;;;;;;5056768;28;20025;-61
2022/06/11 05:51:32;;;;;;;11.48;1.88;;;17.90;59.10;;;;;;5051560;28;20024;-62
2022/06/11 05:54:01;;;;;;;4.68;1.40;;;18.00;59.00;;;;;;5051129;28;20478;-62
2022/06/11 05:56:28;;;;;;;2.60;1.50;;;18.10;58.80;;;;;;5053552;28;20056;-62
2022/06/11 05:59:01;;;;;;;2.28;1.60;;;18.30;58.50;;;;;;5054992;28;20036;-62
2022/06/11 06:01:31;;;;;;;3.28;1.50;;;18.50;58.30;;;;;;5054094;28;20043;-62
2022/06/11 06:03:57;;;;;;;2.20;1.45;;;18.60;58.10;;;;;;5055307;28;20028;-62
2022/06/11 06:06:23;;;;;;;2.42;1.33;;;18.80;58.10;;;;;;5050420;28;20036;-62
2022/06/11 06:08:49;;;;;;;2.65;1.52;;;18.90;57.90;;;;;;5055121;28;20021;-63
2022/06/11 06:11:15;;;;;;;3.70;1.30;;;19.00;57.60;;;;;;5051537;28;20032;-62
2022/06/11 06:13:46;;;;;;;6.93;1.83;;;19.20;57.40;;;;;;5053764;28;20037;-62
2022/06/11 06:16:13;;;;;;;2.20;1.38;;;19.40;57.10;;;;;;5053128;28;20036;-62
2022/06/11 06:18:39;;;;;;;6.57;1.45;;;19.50;56.80;;;;;;5049475;28;20160;-63
2022/06/11 06:21:05;;;;;;;7.45;1.50;;;19.70;57.00;;;;;;5051268;28;20076;-63
2022/06/11 06:23:34;;;;;;;4.55;1.40;;;19.80;56.80;;;;;;5050462;28;20120;-63
2022/06/11 06:26:00;;;;;;;4.65;1.40;;;19.90;57.00;;;;;;5051434;28;20028;-62
2022/06/11 06:28:27;;;;;;;4.90;1.73;;;20.10;56.80;;;;;;4995960;28;20063;-63
2022/06/11 06:30:53;;;;;;;3.90;1.63;;;20.20;56.40;;;;;;5038107;28;20028;-63
2022/06/11 06:33:19;;;;;;;6.00;1.67;;;20.30;56.00;;;;;;5056481;28;20059;-63
2022/06/11 06:35:45;;;;;;;4.80;1.73;;;20.50;55.80;;;;;;5051857;28;20056;-63
2022/06/11 06:38:11;;;;;;;3.45;1.50;;;20.60;55.70;;;;;;5058737;28;20033;-63
2022/06/11 06:40:37;;;;;;;3.78;1.67;;;20.70;55.40;;;;;;5049135;28;20030;-63
2022/06/11 06:43:04;;;;;;;2.35;1.80;;;20.80;55.20;;;;;;5047408;28;20029;-63
2022/06/11 06:45:30;;;;;;;5.22;1.60;;;21.00;55.20;;;;;;5053188;28;20081;-63
2022/06/11 06:47:55;;;;;;;2.53;1.67;;;21.10;55.30;;;;;;5044325;28;20056;-63
2022/06/11 06:50:22;;;;;;;2.85;1.48;;;21.30;55.30;;;;;;5054806;28;20033;-63
2022/06/11 06:52:47;;;;;;;4.60;1.77;;;21.40;55.40;;;;;;5055932;28;20040;-63
2022/06/11 06:55:13;;;;;;;3.08;2.03;;;21.60;55.20;;;;;;5033070;28;20025;-63
2022/06/11 06:57:39;;;;;;;3.17;1.80;;;21.70;55.40;;;;;;5053445;28;20059;-63
2022/06/11 07:00:07;;;;;;;10.80;1.70;;;21.80;54.50;;;;;;5051401;28;20122;-63
2022/06/11 07:02:33;;;;;;;5.93;1.42;;;22.00;54.60;;;;;;5049905;28;20025;-63
2022/06/11 07:04:59;;;;;;;4.03;1.65;;;22.10;54.40;;;;;;5052816;28;20027;-63
2022/06/11 07:07:25;;;;;;;3.17;1.70;;;22.20;54.20;;;;;;5055263;28;20041;-63
2022/06/11 07:09:54;;;;;;;3.30;1.60;;;22.30;53.90;;;;;;5051563;28;20020;-63
2022/06/11 07:12:19;;;;;;;2.33;1.48;;;22.40;53.60;;;;;;5064308;28;20396;-63
2022/06/11 07:14:45;;;;;;;2.88;1.70;;;22.50;53.70;;;;;;5051151;28;20030;-63
2022/06/11 07:17:12;;;;;;;2.58;1.40;;;22.70;53.20;;;;;;5055620;28;20033;-63
2022/06/11 07:19:44;;;;;;;5.10;1.40;;;22.80;53.00;;;;;;5050968;28;20051;-63
2022/06/11 07:22:17;;;;;;;6.10;1.50;;;22.90;52.70;;;;;;5053829;28;20033;-63
2022/06/11 07:24:43;;;;;;;6.43;1.40;;;23.00;53.30;;;;;;5051775;28;20048;-63
2022/06/11 07:27:14;;;;;;;6.40;1.80;;;23.20;52.80;;;;;;4974421;28;20045;-64
2022/06/11 07:30:08;;;;;;;4.40;1.35;;;23.30;52.60;;;;;;5030848;28;20125;-64
2022/06/11 07:32:35;;;;;;;1.15;0.88;;;23.50;51.80;;;;;;5048468;28;20031;-63
2022/06/11 07:35:11;;;;;;;3.40;1.30;;;23.70;51.80;;;;;;5048357;28;20037;-63
2022/06/11 07:37:37;;;;;;;2.70;1.40;;;23.80;50.90;;;;;;5051630;28;20118;-63
2022/06/11 07:40:04;;;;;;;4.07;1.30;;;24.00;51.20;;;;;;5054226;28;20037;-63
2022/06/11 07:42:30;;;;;;;2.33;1.20;;;24.20;50.60;;;;;;5048359;28;20037;-63
2022/06/11 07:44:56;;;;;;;1.40;1.23;;;24.40;50.10;;;;;;5061712;28;20031;-63
2022/06/11 07:50:08;;;;;;;3.33;1.20;;;24.60;49.00;;;;;;5058249;28;20039;-63
2022/06/11 07:52:33;;;;;;;3.53;1.20;;;24.80;48.30;;;;;;5049933;28;20029;-63
2022/06/11 07:54:59;;;;;;;2.13;1.08;;;24.90;48.00;;;;;;5052678;28;20039;-63
2022/06/11 07:57:25;;;;;;;2.58;0.80;;;25.00;47.70;;;;;;5058573;28;20025;-63
2022/06/11 07:59:50;;;;;;;2.05;0.95;;;25.20;47.00;;;;;;5052968;28;20033;-64
2022/06/11 08:02:16;;;;;;;1.80;1.00;;;25.30;46.90;;;;;;5061689;28;20420;-64
2022/06/11 08:04:42;;;;;;;4.00;0.90;;;25.40;46.50;;;;;;5050753;28;20100;-64
2022/06/11 08:07:07;;;;;;;3.65;1.10;;;25.50;46.20;;;;;;5057336;28;20033;-63
2022/06/11 08:09:33;;;;;;;1.52;0.93;;;25.60;45.30;;;;;;5060825;28;20043;-63
2022/06/11 08:11:58;;;;;;;2.75;0.90;;;25.70;45.30;;;;;;5057672;28;20477;-63
2022/06/11 08:14:24;;;;;;;2.80;0.95;;;25.80;45.30;;;;;;5052662;28;20112;-64
2022/06/11 08:16:50;;;;;;;3.90;1.08;;;25.90;44.90;;;;;;5053427;28;20491;-64
2022/06/11 08:19:15;;;;;;;2.17;0.90;;;26.00;44.90;;;;;;5056547;28;20088;-64
2022/06/11 08:21:41;;;;;;;3.53;0.90;;;26.00;44.30;;;;;;5052767;28;20052;-64
2022/06/11 08:24:08;;;;;;;2.40;1.10;;;26.20;43.80;;;;;;5054903;28;20040;-63
2022/06/11 08:26:34;;;;;;;2.13;0.90;;;26.20;44.10;;;;;;5059045;28;20036;-64
2022/06/11 08:29:00;;;;;;;4.97;1.45;;;26.30;43.80;;;;;;5050770;28;20560;-63
2022/06/11 08:31:27;;;;;;;2.78;0.88;;;26.40;43.10;;;;;;5047355;28;20057;-63
2022/06/11 08:33:52;;;;;;;2.30;1.00;;;26.40;42.50;;;;;;5046845;28;20029;-63
2022/06/11 08:36:18;;;;;;;2.83;0.93;;;26.50;42.00;;;;;;5061958;28;20048;-64
2022/06/11 08:38:44;;;;;;;1.85;0.77;;;26.50;41.80;;;;;;5057447;28;20098;-63
2022/06/11 08:41:16;;;;;;;8.13;1.00;;;26.60;41.70;;;;;;5059952;28;20067;-63
2022/06/11 08:43:50;;;;;;;4.13;0.93;;;26.70;41.00;;;;;;5058196;28;20029;-64
2022/06/11 08:46:22;;;;;;;2.08;0.80;;;26.80;41.90;;;;;;5050327;28;20435;-63
2022/06/11 08:48:50;;;;;;;2.45;1.52;;;26.80;40.50;;;;;;5050596;28;20044;-63
2022/06/11 08:51:37;;;;;;;2.50;1.20;;;26.90;41.20;;;;;;5057104;28;20021;-63
2022/06/11 08:54:07;;;;;;;10.85;1.65;;;27.00;40.60;;;;;;5054537;28;20021;-63
2022/06/11 08:56:50;;;;;;;15.25;2.10;;;27.00;40.00;;;;;;5049543;28;20037;-63
2022/06/11 08:59:32;;;;;;;2.92;0.90;;;27.10;39.60;;;;;;5058885;28;20020;-63
2022/06/11 09:02:07;;;;;;;4.57;1.00;;;27.10;39.00;;;;;;5055087;28;20028;-63
2022/06/11 09:04:54;;;;;;;2.05;0.90;;;27.20;38.50;;;;;;5051799;28;20037;-63
2022/06/11 09:07:30;;;;;;;2.22;0.93;;;27.20;38.80;;;;;;5046832;28;20116;-63
2022/06/11 09:10:27;;;;;;;2.75;0.70;;;27.20;38.50;;;;;;5053987;28;20029;-63
2022/06/11 09:13:08;;;;;;;1.45;0.80;;;27.30;38.90;;;;;;5053469;28;20037;-63
2022/06/11 09:15:52;;;;;;;2.40;0.85;;;27.40;39.10;;;;;;5047600;28;20029;-63
2022/06/11 09:18:20;;;;;;;;;;;27.40;38.60;;;;;;5050319;28;20116;-63
2022/06/11 09:21:14;;;;;;;1.58;0.80;;;27.50;40.10;;;;;;5051978;28;20579;-64
2022/06/11 09:23:51;;;;;;;2.83;1.00;;;27.60;38.10;;;;;;5053876;28;20032;-63
2022/06/11 09:26:30;;;;;;;2.83;0.93;;;27.70;39.20;;;;;;5038806;28;20037;-63
2022/06/11 09:29:11;;;;;;;1.17;0.60;;;27.70;37.50;;;;;;5056392;28;20101;-63
2022/06/11 09:31:58;;;;;;;3.53;0.90;;;27.80;37.30;;;;;;5056937;28;20044;-63
2022/06/11 09:34:39;;;;;;;1.85;0.75;;;27.90;37.30;;;;;;5055664;28;20526;-63
2022/06/11 09:37:10;;;;;;;1.60;0.60;;;28.00;37.30;;;;;;5036002;28;20033;-64
2022/06/11 09:39:56;;;;;;;1.10;0.75;;;28.10;37.00;;;;;;5052500;28;20463;-63
2022/06/11 09:42:50;;;;;;;3.45;0.90;;;28.20;36.50;;;;;;5056456;28;20088;-63
2022/06/11 09:45:24;;;;;;;2.95;0.70;;;28.40;35.90;;;;;;5054745;28;20053;-63
2022/06/11 09:47:58;;;;;;;2.20;0.80;;;28.50;36.70;;;;;;5057354;28;20033;-64
2022/06/11 09:50:45;;;;;;;2.28;0.77;;;28.70;36.60;;;;;;5054763;28;20033;-63
2022/06/11 09:53:39;;;;;;;1.40;0.70;;;28.80;36.50;;;;;;5052231;28;20428;-63
2022/06/11 09:56:24;;;;;;;3.38;0.80;;;28.90;35.20;;;;;;5028819;28;20036;-63
2022/06/11 09:59:19;;;;;;;2.97;0.80;;;29.00;36.10;;;;;;5056411;28;20174;-63
2022/06/11 10:01:54;;;;;;;1.98;0.63;;;29.20;33.80;;;;;;5056095;28;20564;-63
2022/06/11 10:04:33;;;;;;;0.73;0.50;;;29.30;34.90;;;;;;5057031;28;20478;-63
2022/06/11 10:07:11;;;;;;;1.75;0.60;;;29.40;34.70;;;;;;5048583;28;20036;-64
2022/06/11 10:09:43;;;;;;;2.67;0.65;;;29.40;33.60;;;;;;5050579;28;20025;-63
2022/06/11 10:12:18;;;;;;;1.80;0.80;;;29.40;32.90;;;;;;5053745;28;20017;-64
2022/06/11 10:14:52;;;;;;;1.25;0.60;;;29.40;32.40;;;;;;5050888;28;20043;-64
2022/06/11 10:17:39;;;;;;;1.35;0.73;;;29.40;33.10;;;;;;5047610;28;20779;-65
2022/06/11 10:20:27;;;;;;;2.13;0.77;;;29.40;32.20;;;;;;5051350;28;20512;-64
2022/06/11 10:23:15;;;;;;;1.02;0.65;;;29.40;34.30;;;;;;5052560;28;20104;-63
2022/06/11 10:25:56;;;;;;;1.67;0.50;;;29.40;33.30;;;;;;5054351;28;20038;-64
2022/06/11 10:28:25;;;;;;;1.98;0.73;;;29.40;34.00;;;;;;5053513;28;20108;-63
2022/06/11 10:30:55;;;;;;;3.72;0.70;;;29.50;34.20;;;;;;5037183;28;20043;-63
2022/06/11 10:33:24;;;;;;;2.70;1.00;;;29.60;33.60;;;;;;5043906;28;20174;-64
2022/06/11 10:36:00;;;;;;;2.42;0.90;;;29.60;33.60;;;;;;5052185;28;20132;-63
2022/06/11 10:38:41;;;;;;;1.95;0.70;;;29.60;31.90;;;;;;5044953;28;20032;-63
2022/06/11 10:41:16;;;;;;;1.33;0.70;;;29.60;32.20;;;;;;5051878;28;20078;-63
2022/06/11 10:43:50;;;;;;;1.65;0.70;;;29.70;32.40;;;;;;5047569;28;20038;-63
2022/06/11 10:46:17;;;;;;;2.30;0.82;;;29.80;31.10;;;;;;5048125;28;20021;-64
2022/06/11 10:48:43;;;;;;;2.03;0.80;;;29.90;33.30;;;;;;5060556;28;20051;-64
2022/06/11 10:51:22;;;;;;;2.45;1.23;;;30.00;32.60;;;;;;5053850;28;20063;-63
2022/06/11 10:54:06;;;;;;;3.20;0.90;;;30.10;31.40;;;;;;5049720;28;20037;-63
2022/06/11 10:56:47;;;;;;;5.03;0.90;;;30.30;31.30;;;;;;5055001;28;20028;-63
2022/06/11 10:59:30;;;;;;;7.13;1.20;;;30.40;31.00;;;;;;5055823;28;20059;-64
2022/06/11 11:02:05;;;;;;;2.05;0.68;;;30.40;30.20;;;;;;5053652;28;20039;-64
2022/06/11 11:04:41;;;;;;;4.03;0.70;;;30.40;32.10;;;;;;5050502;28;20032;-64
2022/06/11 11:07:19;;;;;;;1.67;0.90;;;30.40;31.10;;;;;;5030424;28;20291;-64
2022/06/11 11:09:46;;;;;;;1.92;0.80;;;30.40;30.70;;;;;;5053564;28;20013;-63
2022/06/11 11:12:26;;;;;;;2.10;0.60;;;30.40;32.00;;;;;;5055492;28;20076;-63
2022/06/11 11:15:10;;;;;;;2.45;1.20;;;30.50;31.50;;;;;;5048562;28;20079;-63
2022/06/11 11:17:35;;;;;;;0.73;0.53;;;30.50;31.80;;;;;;5057912;28;20036;-64
2022/06/11 11:20:35;;;;;;;1.67;0.70;;;30.60;31.20;;;;;;5039202;28;20432;-64
2022/06/11 11:23:28;;;;;;;3.72;1.13;;;30.60;32.10;;;;;;5057143;28;20036;-63
2022/06/11 11:26:00;;;;;;;8.02;0.90;;;30.60;31.50;;;;;;5056389;28;20268;-63
2022/06/11 11:28:57;;;;;;;2.47;0.60;;;30.50;31.80;;;;;;5053949;28;20119;-63
2022/06/11 11:31:38;;;;;;;7.65;0.90;;;30.50;32.10;;;;;;5035067;28;20410;-63
2022/06/11 11:34:23;;;;;;;1.50;0.90;;;30.50;30.90;;;;;;5035606;28;20045;-63
2022/06/11 11:36:49;;;;;;;1.42;0.73;;;30.50;31.10;;;;;;5060865;28;20021;-63
2022/06/11 11:39:17;;;;;;;1.85;0.60;;;30.50;32.00;;;;;;5053116;28;20024;-63
2022/06/11 11:41:58;;;;;;;1.55;0.70;;;30.50;31.30;;;;;;5057662;28;20031;-63
2022/06/11 11:44:24;;;;;;;1.95;0.80;;;30.40;30.20;;;;;;5058154;28;20029;-63
2022/06/11 11:47:03;;;;;;;2.38;0.90;;;30.30;31.20;;;;;;5050941;28;21363;-63
2022/06/11 11:49:32;;;;;;;2.15;0.93;;;30.20;31.90;;;;;;5055405;28;20021;-63
2022/06/11 11:52:03;;;;;;;0.70;0.55;;;30.20;32.00;;;;;;5055658;28;20242;-63
2022/06/11 11:54:29;;;;;;;2.55;0.90;;;30.20;30.50;;;;;;5055691;28;21360;-64
2022/06/11 11:56:59;;;;;;;2.38;0.90;;;30.30;31.80;;;;;;5053641;28;20036;-63
2022/06/11 11:59:49;;;;;;;1.98;0.90;;;30.30;31.70;;;;;;5053679;28;20034;-63
2022/06/11 12:02:26;;;;;;;2.20;0.80;;;30.30;30.70;;;;;;5033188;28;20026;-63
2022/06/11 12:04:54;;;;;;;5.03;0.90;;;30.20;31.20;;;;;;5056148;28;20119;-64
2022/06/11 12:07:33;;;;;;;1.55;0.80;;;30.20;30.70;;;;;;5055894;28;20379;-64
2022/06/11 12:10:23;;;;;;;1.60;0.52;;;30.20;31.60;;;;;;5057963;28;20043;-64
2022/06/11 12:12:51;;;;;;;2.97;0.80;;;30.20;31.50;;;;;;5050477;28;20029;-64
2022/06/11 12:15:22;;;;;;;2.03;0.93;;;30.50;32.90;;;;;;5055205;28;20048;-63
2022/06/11 12:17:58;;;;;;;2.50;1.30;;;30.50;31.60;;;;;;5056292;28;20025;-64
2022/06/11 12:20:26;;;;;;;2.63;1.40;;;30.60;30.70;;;;;;5060018;28;20036;-64
2022/06/11 12:23:17;;;;;;;2.97;1.00;;;30.70;31.30;;;;;;5048728;28;20489;-64
2022/06/11 12:26:19;;;;;;;2.53;1.13;;;30.80;31.10;;;;;;5051699;28;20417;-64
2022/06/11 12:28:52;;;;;;;1.38;0.73;;;31.00;30.20;;;;;;4986818;28;20047;-63
2022/06/11 12:31:19;;;;;;;5.63;1.10;;;31.20;30.70;;;;;;5050321;28;20060;-64
2022/06/11 12:33:46;;;;;;;2.85;0.90;;;31.40;30.40;;;;;;5059007;28;20572;-64
2022/06/11 12:36:55;;;;;;;2.47;0.63;;;31.40;29.80;;;;;;5050254;28;20032;-63
2022/06/11 12:39:56;;;;;;;2.80;0.50;;;31.60;30.20;;;;;;5050411;28;20040;-64
2022/06/11 12:42:31;;;;;;;2.58;0.68;;;31.80;31.30;;;;;;5060383;28;20568;-64
2022/06/11 12:45:25;;;;;;;0.82;0.55;;;31.90;30.00;;;;;;5056228;28;20140;-64
2022/06/11 12:48:15;;;;;;;;;;;32.10;29.30;;;;;;5042478;28;20056;-64
2022/06/11 12:51:01;;;;;;;1.27;0.63;;;32.20;30.50;;;;;;5054368;28;19913;-64
2022/06/11 12:53:51;;;;;;;1.27;0.60;;;32.20;29.20;;;;;;5056952;28;20025;-64
2022/06/11 12:56:59;;;;;;;1.15;0.63;;;32.20;28.90;;;;;;5053996;28;20489;-64
2022/06/11 12:59:31;;;;;;;7.55;0.80;;;32.00;28.50;;;;;;5056050;28;20021;-64
2022/06/11 13:02:41;;;;;;;1.77;0.60;;;31.80;28.50;;;;;;5058897;28;20103;-63
2022/06/11 13:05:15;;;;;;;1.98;0.60;;;31.60;29.00;;;;;;5055416;28;20042;-63
2022/06/11 13:08:09;;;;;;;1.58;0.65;;;31.40;29.90;;;;;;5048092;28;20054;-64
2022/06/11 13:10:42;;;;;;;;;;;31.30;29.70;;;;;;5023986;28;20040;-64
2022/06/11 13:13:30;;;;;;;1.80;0.57;;;31.40;30.90;;;;;;5056991;28;19926;-63
2022/06/11 13:16:31;;;;;;;2.22;1.58;;;31.30;30.50;;;;;;5033866;28;20168;-63
2022/06/11 13:19:33;;;;;;;1.38;0.70;;;31.20;30.00;;;;;;5056630;28;20033;-64
2022/06/11 13:22:12;;;;;;;3.25;0.77;;;31.20;31.20;;;;;;5051841;28;20036;-64
2022/06/11 13:24:53;;;;;;;1.90;0.90;;;31.10;30.30;;;;;;5049988;28;20027;-63